createdAt,value
2023-04-15T08:08:52.423Z,1001.65
2023-04-15T08:09:52.411Z,1001.63
2023-04-15T08:10:52.843Z,1001.62
2023-04-15T08:11:52.417Z,1001.63
2023-04-15T08:12:52.423Z,1001.62
2023-04-15T08:13:52.449Z,1001.70
2023-04-15T08:14:52.426Z,1001.67
2023-04-15T08:15:52.494Z,1001.68
2023-04-15T08:16:52.444Z,1001.67
2023-04-15T08:17:52.479Z,1001.66
2023-04-15T08:18:52.446Z,1001.70
2023-04-15T08:19:52.460Z,1001.68
2023-04-15T08:20:52.459Z,1001.73
2023-04-15T08:21:52.461Z,1001.75
2023-04-15T08:22:52.473Z,1001.79
2023-04-15T08:23:52.479Z,1001.79
2023-04-15T08:24:52.521Z,1001.80
2023-04-15T08:25:52.481Z,1001.83
2023-04-15T08:26:52.496Z,1001.83
2023-04-15T08:27:52.501Z,1001.85
2023-04-15T08:28:52.509Z,1001.86
2023-04-15T08:29:52.509Z,1001.85
2023-04-15T08:30:52.516Z,1001.84
2023-04-15T08:31:52.625Z,1001.85
2023-04-15T08:32:52.588Z,1001.85
2023-04-15T08:33:52.537Z,1001.88
2023-04-15T08:34:52.538Z,1001.85
2023-04-15T08:35:52.536Z,1001.80
2023-04-15T08:36:52.551Z,1001.83
2023-04-15T08:37:52.548Z,1001.82
2023-04-15T08:38:52.559Z,1001.86
2023-04-15T08:39:52.572Z,1001.81
2023-04-15T08:40:52.584Z,1001.78
2023-04-15T08:41:52.568Z,1001.81
2023-04-15T08:42:52.580Z,1001.80
2023-04-15T08:43:52.583Z,1001.85
2023-04-15T08:44:52.591Z,1001.79
2023-04-15T08:45:52.590Z,1001.81
2023-04-15T08:46:52.620Z,1001.83
2023-04-15T08:47:52.723Z,1001.84
2023-04-15T08:48:52.626Z,1001.80
2023-04-15T08:49:52.618Z,1001.83
2023-04-15T08:50:52.634Z,1001.81
2023-04-15T08:51:52.630Z,1001.82
2023-04-15T08:52:52.638Z,1001.87
2023-04-15T08:53:52.654Z,1001.85
2023-04-15T08:54:52.643Z,1001.88
2023-04-15T08:55:52.674Z,1001.89
2023-04-15T08:56:52.749Z,1001.87
2023-04-15T08:57:52.660Z,1001.92
2023-04-15T08:58:52.662Z,1001.89
2023-04-15T08:59:52.680Z,1001.94
2023-04-15T09:00:52.748Z,1001.92
2023-04-15T09:01:52.725Z,1001.91
2023-04-15T09:02:52.858Z,1001.92
2023-04-15T09:03:52.760Z,1001.95
2023-04-15T09:04:52.708Z,1001.96
2023-04-15T09:05:53.279Z,1001.97
2023-04-15T09:06:52.719Z,1001.99
2023-04-15T09:07:52.763Z,1001.96
2023-04-15T09:08:52.720Z,1001.96
2023-04-15T09:09:52.739Z,1001.97
2023-04-15T09:10:52.746Z,1002.00
2023-04-15T09:11:52.754Z,1002.01
2023-04-15T09:12:52.767Z,1002.04
2023-04-15T09:13:52.754Z,1002.04
2023-04-15T09:14:52.763Z,1002.03
2023-04-15T09:15:52.762Z,1002.07
2023-04-15T09:16:52.798Z,1002.09
2023-04-15T09:17:52.806Z,1002.10
2023-04-15T09:18:52.785Z,1002.13
2023-04-15T09:19:52.798Z,1002.12
2023-04-15T09:20:52.787Z,1002.16
2023-04-15T09:21:52.803Z,1002.18
2023-04-15T09:22:52.804Z,1002.20
2023-04-15T09:23:52.812Z,1002.20
2023-04-15T09:24:52.818Z,1002.20
2023-04-15T09:25:52.817Z,1002.18
2023-04-15T09:26:52.822Z,1002.13
2023-04-15T09:27:52.824Z,1002.13
2023-04-15T09:28:52.915Z,1002.18
2023-04-15T09:29:52.841Z,1002.18
2023-04-15T09:30:52.868Z,1002.21
2023-04-15T09:31:52.854Z,1002.25
2023-04-15T09:32:53.001Z,1002.22
2023-04-15T09:33:52.868Z,1002.24
2023-04-15T09:34:52.874Z,1002.24
2023-04-15T09:35:52.877Z,1002.27
2023-04-15T09:36:52.890Z,1002.29
2023-04-15T09:37:52.880Z,1002.28
2023-04-15T09:38:52.972Z,1002.32
2023-04-15T09:39:52.896Z,1002.29
2023-04-15T09:40:52.907Z,1002.29
2023-04-15T09:41:52.910Z,1002.30
2023-04-15T09:42:52.917Z,1002.30
2023-04-15T09:43:52.917Z,1002.28
2023-04-15T09:44:52.946Z,1002.26
2023-04-15T09:45:52.949Z,1002.24
2023-04-15T09:46:52.935Z,1002.26
2023-04-15T09:47:52.941Z,1002.33
2023-04-15T09:48:52.968Z,1002.29
2023-04-15T09:49:52.964Z,1002.32
2023-04-15T09:50:52.958Z,1002.30
2023-04-15T09:52:04.402Z,1002.30
2023-04-15T09:52:52.976Z,1002.34
2023-04-15T09:53:52.995Z,1002.33
2023-04-15T09:54:52.985Z,1002.33
2023-04-15T09:55:52.986Z,1002.39
2023-04-15T09:56:53.000Z,1002.36
2023-04-15T09:57:53.003Z,1002.36
2023-04-15T09:58:53.005Z,1002.38
2023-04-15T09:59:53.008Z,1002.40
2023-04-15T10:00:53.067Z,1002.41
2023-04-15T10:01:53.088Z,1002.39
2023-04-15T10:02:53.192Z,1002.39
2023-04-15T10:03:53.082Z,1002.33
2023-04-15T10:04:53.046Z,1002.36
2023-04-15T10:05:53.057Z,1002.35
2023-04-15T10:06:53.061Z,1002.40
2023-04-15T10:07:53.065Z,1002.36
2023-04-15T10:08:53.070Z,1002.42
2023-04-15T10:09:53.095Z,1002.42
2023-04-15T10:10:53.092Z,1002.44
2023-04-15T10:11:53.092Z,1002.43
2023-04-15T10:12:53.093Z,1002.44
2023-04-15T10:13:53.095Z,1002.42
2023-04-15T10:14:53.127Z,1002.44
2023-04-15T10:15:53.154Z,1002.41
2023-04-15T10:16:53.180Z,1002.45
2023-04-15T10:17:53.165Z,1002.47
2023-04-15T10:18:53.126Z,1002.47
2023-04-15T10:19:53.134Z,1002.48
2023-04-15T10:20:53.136Z,1002.50
2023-04-15T10:21:53.150Z,1002.49
2023-04-15T10:22:53.166Z,1002.50
2023-04-15T10:23:53.167Z,1002.52
2023-04-15T10:24:53.161Z,1002.53
2023-04-15T10:25:53.167Z,1002.54
2023-04-15T10:26:53.173Z,1002.52
2023-04-15T10:27:53.173Z,1002.51
2023-04-15T10:28:53.186Z,1002.54
2023-04-15T10:29:53.188Z,1002.54
2023-04-15T10:30:53.241Z,1002.53
2023-04-15T10:31:53.237Z,1002.56
2023-04-15T10:32:53.283Z,1002.56
2023-04-15T10:33:53.218Z,1002.55
2023-04-15T10:34:54.647Z,1002.57
2023-04-15T10:35:53.226Z,1002.57
2023-04-15T10:36:53.233Z,1002.58
2023-04-15T10:37:53.246Z,1002.56
2023-04-15T10:38:53.246Z,1002.55
2023-04-15T10:39:53.254Z,1002.56
2023-04-15T10:40:53.253Z,1002.52
2023-04-15T10:41:53.260Z,1002.54
2023-04-15T10:42:53.268Z,1002.54
2023-04-15T10:43:53.298Z,1002.57
2023-04-15T10:44:53.282Z,1002.55
2023-04-15T10:45:53.312Z,1002.55
2023-04-15T10:46:53.463Z,1002.57
2023-04-15T10:47:53.348Z,1002.58
2023-04-15T10:48:53.331Z,1002.59
2023-04-15T10:49:53.316Z,1002.56
2023-04-15T10:50:53.323Z,1002.60
2023-04-15T10:51:53.317Z,1002.61
2023-04-15T10:52:53.338Z,1002.63
2023-04-15T10:53:53.338Z,1002.59
2023-04-15T10:54:53.346Z,1002.58
2023-04-15T10:55:53.340Z,1002.57
2023-04-15T10:56:53.358Z,1002.56
2023-04-15T10:57:53.361Z,1002.58
2023-04-15T10:58:53.362Z,1002.60
2023-04-15T10:59:53.366Z,1002.59
2023-04-15T11:00:53.377Z,1002.58
2023-04-15T11:01:53.551Z,1002.64
2023-04-15T11:02:53.525Z,1002.58
2023-04-15T11:03:53.450Z,1002.59
2023-04-15T11:04:53.503Z,1002.59
2023-04-15T11:05:53.416Z,1002.60
2023-04-15T11:06:53.418Z,1002.65
2023-04-15T11:07:53.414Z,1002.64
2023-04-15T11:08:53.424Z,1002.64
2023-04-15T11:09:53.425Z,1002.64
2023-04-15T11:10:53.431Z,1002.65
2023-04-15T11:11:53.448Z,1002.66
2023-04-15T11:12:53.453Z,1002.67
2023-04-15T11:13:53.455Z,1002.68
2023-04-15T11:14:53.455Z,1002.69
2023-04-15T11:15:53.482Z,1002.67
2023-04-15T11:16:53.475Z,1002.73
2023-04-15T11:17:53.559Z,1002.73
2023-04-15T11:18:53.478Z,1002.76
2023-04-15T11:19:53.500Z,1002.73
2023-04-15T11:20:53.514Z,1002.75
2023-04-15T11:21:53.504Z,1002.73
2023-04-15T11:22:53.503Z,1002.79
2023-04-15T11:23:53.510Z,1002.76
2023-04-15T11:24:53.517Z,1002.77
2023-04-15T11:25:53.520Z,1002.79
2023-04-15T11:26:53.534Z,1002.80
2023-04-15T11:27:53.533Z,1002.79
2023-04-15T11:28:53.540Z,1002.79
2023-04-15T11:29:53.546Z,1002.78
2023-04-15T11:30:53.551Z,1002.82
2023-04-15T11:31:53.609Z,1002.77
2023-04-15T11:32:53.624Z,1002.82
2023-04-15T11:33:53.577Z,1002.82
2023-04-15T11:34:53.575Z,1002.83
2023-04-15T11:35:53.584Z,1002.85
2023-04-15T11:36:53.604Z,1002.88
2023-04-15T11:37:53.598Z,1002.87
2023-04-15T11:38:53.609Z,1002.87
2023-04-15T11:39:53.612Z,1002.90
2023-04-15T11:40:56.686Z,1002.90
2023-04-15T11:41:53.630Z,1002.89
2023-04-15T11:42:53.629Z,1002.95
2023-04-15T11:43:53.647Z,1002.90
2023-04-15T11:44:53.647Z,1002.93
2023-04-15T11:45:53.884Z,1002.93
2023-04-15T11:46:53.660Z,1002.94
2023-04-15T11:47:53.719Z,1002.98
2023-04-15T11:48:53.667Z,1002.99
2023-04-15T11:49:53.675Z,1002.99
2023-04-15T11:50:53.681Z,1002.99
2023-04-15T11:51:53.688Z,1002.98
2023-04-15T11:52:53.715Z,1002.99
2023-04-15T11:53:53.706Z,1003.02
2023-04-15T11:54:53.716Z,1003.02
2023-04-15T11:55:53.707Z,1003.01
2023-04-15T11:56:53.731Z,1003.03
2023-04-15T11:57:53.724Z,1003.03
2023-04-15T11:58:53.766Z,1003.06
2023-04-15T11:59:53.733Z,1003.08
2023-04-15T12:00:53.738Z,1003.07
2023-04-15T12:01:53.801Z,1003.11
2023-04-15T12:02:53.869Z,1003.07
2023-04-15T12:03:53.951Z,1003.12
2023-04-15T12:04:53.886Z,1003.10
2023-04-15T12:05:53.775Z,1003.14
2023-04-15T12:06:53.774Z,1003.13
2023-04-15T12:07:53.780Z,1003.10
2023-04-15T12:08:53.811Z,1003.12
2023-04-15T12:09:53.789Z,1003.14
2023-04-15T12:10:53.805Z,1003.16
2023-04-15T12:11:53.880Z,1003.13
2023-04-15T12:12:53.820Z,1003.15
2023-04-15T12:13:53.821Z,1003.13
2023-04-15T12:14:53.830Z,1003.15
2023-04-15T12:15:53.871Z,1003.17
2023-04-15T12:16:53.848Z,1003.22
2023-04-15T12:17:53.878Z,1003.22
2023-04-15T12:18:53.847Z,1003.23
2023-04-15T12:19:53.849Z,1003.26
2023-04-15T12:20:53.865Z,1003.24
2023-04-15T12:21:53.868Z,1003.28
2023-04-15T12:22:53.896Z,1003.27
2023-04-15T12:23:53.887Z,1003.31
2023-04-15T12:24:53.926Z,1003.31
2023-04-15T12:25:53.903Z,1003.34
2023-04-15T12:26:53.898Z,1003.38
2023-04-15T12:27:53.922Z,1003.36
2023-04-15T12:28:53.908Z,1003.37
2023-04-15T12:29:53.921Z,1003.42
2023-04-15T12:30:54.021Z,1003.46
2023-04-15T12:31:53.949Z,1003.43
2023-04-15T12:32:53.963Z,1003.48
2023-04-15T12:33:53.958Z,1003.48
2023-04-15T12:34:53.951Z,1003.48
2023-04-15T12:35:53.952Z,1003.49
2023-04-15T12:36:53.970Z,1003.51
2023-04-15T12:37:53.977Z,1003.51
2023-04-15T12:38:53.970Z,1003.50
2023-04-15T12:39:54.012Z,1003.54
2023-04-15T12:40:54.026Z,1003.56
2023-04-15T12:41:53.995Z,1003.60
2023-04-15T12:42:54.004Z,1003.58
2023-04-15T12:43:54.003Z,1003.61
2023-04-15T12:44:54.012Z,1003.65
2023-04-15T12:45:54.016Z,1003.63
2023-04-15T12:46:54.068Z,1003.63
2023-04-15T12:47:54.059Z,1003.70
2023-04-15T12:48:54.048Z,1003.69
2023-04-15T12:49:54.048Z,1003.69
2023-04-15T12:50:54.058Z,1003.70
2023-04-15T12:51:54.069Z,1003.73
2023-04-15T12:52:54.061Z,1003.76
2023-04-15T12:53:54.070Z,1003.76
2023-04-15T12:54:54.081Z,1003.79
2023-04-15T12:55:54.087Z,1003.81
2023-04-15T12:56:54.106Z,1003.81
2023-04-15T12:57:54.095Z,1003.84
2023-04-15T12:58:54.092Z,1003.86
2023-04-15T12:59:54.105Z,1003.80
2023-04-15T13:00:54.116Z,1003.82
2023-04-15T13:01:54.602Z,1003.88
2023-04-15T13:02:54.184Z,1003.84
2023-04-15T13:03:54.227Z,1003.83
2023-04-15T13:04:54.210Z,1003.86
2023-04-15T13:05:54.142Z,1003.83
2023-04-15T13:06:54.153Z,1003.89
2023-04-15T13:07:54.163Z,1003.85
2023-04-15T13:08:58.204Z,1003.87
2023-04-15T13:09:54.175Z,1003.89
2023-04-15T13:10:54.164Z,1003.92
2023-04-15T13:11:54.190Z,1003.94
2023-04-15T13:12:54.209Z,1003.95
2023-04-15T13:13:54.190Z,1003.96
2023-04-15T13:14:54.200Z,1003.96
2023-04-15T13:15:54.277Z,1003.92
2023-04-15T13:16:54.220Z,1004.00
2023-04-15T13:17:54.318Z,1004.00
2023-04-15T13:18:54.222Z,1004.00
2023-04-15T13:19:54.223Z,1003.98
2023-04-15T13:20:54.228Z,1004.02
2023-04-15T13:21:54.237Z,1004.02
2023-04-15T13:22:54.249Z,1004.04
2023-04-15T13:23:54.253Z,1004.09
2023-04-15T13:24:54.253Z,1004.08
2023-04-15T13:25:54.276Z,1004.06
2023-04-15T13:26:54.266Z,1004.08
2023-04-15T13:27:54.266Z,1004.11
2023-04-15T13:28:54.293Z,1004.14
2023-04-15T13:29:54.286Z,1004.12
2023-04-15T13:30:54.290Z,1004.16
2023-04-15T13:31:54.413Z,1004.18
2023-04-15T13:32:54.368Z,1004.17
2023-04-15T13:33:54.307Z,1004.11
2023-04-15T13:34:54.321Z,1004.16
2023-04-15T13:35:54.316Z,1004.16
2023-04-15T13:36:54.329Z,1004.18
2023-04-15T13:37:54.336Z,1004.22
2023-04-15T13:38:54.344Z,1004.22
2023-04-15T13:39:54.344Z,1004.25
2023-04-15T13:40:54.358Z,1004.25
2023-04-15T13:41:54.359Z,1004.27
2023-04-15T13:42:54.363Z,1004.27
2023-04-15T13:43:54.377Z,1004.29
2023-04-15T13:44:54.394Z,1004.28
2023-04-15T13:45:54.404Z,1004.29
2023-04-15T13:46:54.388Z,1004.31
2023-04-15T13:47:54.514Z,1004.33
2023-04-15T13:48:54.390Z,1004.28
2023-04-15T13:49:54.399Z,1004.35
2023-04-15T13:50:54.409Z,1004.34
2023-04-15T13:51:54.423Z,1004.35
2023-04-15T13:52:54.424Z,1004.36
2023-04-15T13:53:54.423Z,1004.37
2023-04-15T13:55:07.063Z,1004.39
2023-04-15T13:55:54.439Z,1004.40
2023-04-15T13:56:54.441Z,1004.42
2023-04-15T13:57:54.450Z,1004.43
2023-04-15T13:59:36.996Z,1004.41
2023-04-15T14:00:37.150Z,1004.44
2023-04-15T14:01:37.030Z,1004.51
2023-04-15T14:02:37.170Z,1004.46
2023-04-15T14:03:37.311Z,1004.46
2023-04-15T14:04:37.037Z,1004.49
2023-04-15T14:05:37.037Z,1004.46
2023-04-15T14:06:37.035Z,1004.46
2023-04-15T14:07:37.049Z,1004.44
2023-04-15T14:08:37.063Z,1004.47
2023-04-15T14:09:43.010Z,1004.51
2023-04-15T14:10:37.060Z,1004.53
2023-04-15T14:11:37.087Z,1004.54
2023-04-15T14:12:37.083Z,1004.55
2023-04-15T14:13:37.075Z,1004.53
2023-04-15T14:14:37.081Z,1004.52
2023-04-15T14:15:37.125Z,1004.52
2023-04-15T14:16:37.130Z,1004.56
2023-04-15T14:17:37.147Z,1004.61
2023-04-15T14:18:37.115Z,1004.57
2023-04-15T14:19:37.114Z,1004.63
2023-04-15T14:20:37.118Z,1004.64
2023-04-15T14:21:37.122Z,1004.66
2023-04-15T14:22:37.137Z,1004.64
2023-04-15T14:23:37.133Z,1004.65
2023-04-15T14:24:37.147Z,1004.72
2023-04-15T14:25:37.146Z,1004.71
2023-04-15T14:27:19.709Z,1004.73
2023-04-15T14:28:19.701Z,1004.75
2023-04-15T14:29:19.705Z,1004.77
2023-04-15T14:30:19.705Z,1004.76
2023-04-15T14:31:19.942Z,1004.79
2023-04-15T14:32:19.839Z,1004.80
2023-04-15T14:33:19.739Z,1004.81
2023-04-15T14:34:19.737Z,1004.78
2023-04-15T14:35:19.753Z,1004.79
2023-04-15T14:36:19.761Z,1004.82
2023-04-15T14:37:19.766Z,1004.85
2023-04-15T14:38:19.760Z,1004.83
2023-04-15T14:39:19.763Z,1004.85
2023-04-15T14:40:19.775Z,1004.84
2023-04-15T14:41:19.781Z,1004.79
2023-04-15T14:42:19.787Z,1004.85
2023-04-15T14:43:19.787Z,1004.88
2023-04-15T14:44:19.802Z,1004.88
2023-04-15T14:45:19.812Z,1004.89
2023-04-15T14:46:19.886Z,1004.88
2023-04-15T14:47:19.889Z,1004.90
2023-04-15T14:48:19.846Z,1004.91
2023-04-15T14:49:19.853Z,1004.90
2023-04-15T14:50:19.841Z,1004.97
2023-04-15T14:51:19.843Z,1004.92
2023-04-15T14:52:19.848Z,1004.96
2023-04-15T14:53:19.864Z,1004.97
2023-04-15T14:54:21.208Z,1004.97
2023-04-15T14:55:19.886Z,1004.98
2023-04-15T14:56:19.882Z,1004.99
2023-04-15T14:57:19.889Z,1004.98
2023-04-15T14:58:19.886Z,1005.00
2023-04-15T14:59:19.901Z,1005.02
2023-04-15T15:00:19.907Z,1005.04
2023-04-15T15:01:19.922Z,1005.07
2023-04-15T15:02:37.312Z,1005.03
2023-04-15T15:03:19.979Z,1005.04
2023-04-15T15:04:20.030Z,1005.04
2023-04-15T15:05:20.071Z,1005.08
2023-04-15T15:06:19.949Z,1005.07
2023-04-15T15:07:19.954Z,1005.06
2023-04-15T15:08:19.953Z,1005.08
2023-04-15T15:09:19.973Z,1005.11
2023-04-15T15:10:30.261Z,1005.15
2023-04-15T15:11:19.971Z,1005.13
2023-04-15T15:12:19.991Z,1005.15
2023-04-15T15:13:19.996Z,1005.13
2023-04-15T15:14:20.001Z,1005.17
2023-04-15T15:16:20.097Z,1005.24
2023-04-15T15:18:07.652Z,1005.21
2023-04-15T15:19:07.585Z,1005.24
2023-04-15T15:20:07.600Z,1005.30
2023-04-15T15:21:07.593Z,1005.31
2023-04-15T15:22:50.134Z,1005.30
2023-04-15T15:23:50.147Z,1005.30
2023-04-15T15:24:50.149Z,1005.28
2023-04-15T15:25:50.158Z,1005.24
2023-04-15T15:26:50.169Z,1005.27
2023-04-15T15:27:50.166Z,1005.27
2023-04-15T15:28:50.188Z,1005.30
2023-04-15T15:29:50.178Z,1005.34
2023-04-15T15:30:50.185Z,1005.32
2023-04-15T15:31:50.237Z,1005.34
2023-04-15T15:32:50.314Z,1005.34
2023-04-15T15:33:50.215Z,1005.34
2023-04-15T15:34:50.212Z,1005.40
2023-04-15T15:35:50.248Z,1005.38
2023-04-15T15:36:50.226Z,1005.42
2023-04-15T15:37:50.235Z,1005.39
2023-04-15T15:38:50.240Z,1005.41
2023-04-15T15:39:50.244Z,1005.42
2023-04-15T15:40:50.251Z,1005.42
2023-04-15T15:41:50.261Z,1005.40
2023-04-15T15:42:50.262Z,1005.43
2023-04-15T15:43:50.276Z,1005.45
2023-04-15T15:44:50.291Z,1005.48
2023-04-15T15:45:50.287Z,1005.48
2023-04-15T15:46:50.313Z,1005.50
2023-04-15T15:47:50.362Z,1005.53
2023-04-15T15:48:50.302Z,1005.55
2023-04-15T15:49:50.330Z,1005.49
2023-04-15T15:50:50.316Z,1005.53
2023-04-15T15:51:50.344Z,1005.55
2023-04-15T15:52:50.349Z,1005.58
2023-04-15T15:53:50.345Z,1005.58
2023-04-15T15:54:50.348Z,1005.62
2023-04-15T15:55:51.102Z,1005.62
2023-04-15T15:56:50.348Z,1005.62
2023-04-15T15:59:22.997Z,1005.64
2023-04-15T16:00:23.012Z,1005.66
2023-04-15T16:01:23.040Z,1005.68
2023-04-15T16:02:37.580Z,1005.67
2023-04-15T16:03:23.149Z,1005.67
2023-04-15T16:04:23.487Z,1005.70
2023-04-15T16:05:23.042Z,1005.71
2023-04-15T16:06:23.044Z,1005.73
2023-04-15T16:07:23.075Z,1005.79
2023-04-15T16:08:23.059Z,1005.77
2023-04-15T16:09:23.056Z,1005.81
2023-04-15T16:10:23.072Z,1005.78
2023-04-15T16:11:23.078Z,1005.81
2023-04-15T16:12:23.085Z,1005.86
2023-04-15T16:13:23.089Z,1005.83
2023-04-15T16:14:23.097Z,1005.82
2023-04-15T16:15:23.100Z,1005.86
2023-04-15T16:16:23.160Z,1005.86
2023-04-15T16:17:23.136Z,1005.86
2023-04-15T16:18:23.132Z,1005.87
2023-04-15T16:19:23.127Z,1005.86
2023-04-15T16:20:23.130Z,1005.87
2023-04-15T16:21:23.130Z,1005.88
2023-04-15T16:22:23.145Z,1005.86
2023-04-15T16:23:23.294Z,1005.91
2023-04-15T16:24:23.172Z,1005.88
2023-04-15T16:25:23.165Z,1005.90
2023-04-15T16:26:23.186Z,1005.91
2023-04-15T16:27:23.174Z,1005.90
2023-04-15T16:28:26.721Z,1005.91
2023-04-15T16:29:23.198Z,1005.90
2023-04-15T16:30:23.199Z,1005.92
2023-04-15T16:31:23.314Z,1005.94
2023-04-15T16:32:23.252Z,1005.92
2023-04-15T16:33:23.228Z,1005.93
2023-04-15T16:34:23.238Z,1005.93
2023-04-15T16:35:23.232Z,1005.94
2023-04-15T16:36:23.242Z,1005.91
2023-04-15T16:37:23.232Z,1005.97
2023-04-15T16:38:23.258Z,1005.94
2023-04-15T16:39:23.274Z,1005.93
2023-04-15T16:40:23.257Z,1005.90
2023-04-15T16:41:23.272Z,1005.94
2023-04-15T16:42:23.271Z,1005.94
2023-04-15T16:43:23.281Z,1005.94
2023-04-15T16:44:23.277Z,1005.97
2023-04-15T16:45:23.289Z,1005.99
2023-04-15T16:46:23.323Z,1006.00
2023-04-15T16:47:23.332Z,1005.97
2023-04-15T16:48:23.312Z,1006.01
2023-04-15T16:50:05.855Z,1006.05
2023-04-15T16:51:05.857Z,1006.02
2023-04-15T16:52:05.864Z,1006.05
2023-04-15T16:53:05.871Z,1006.08
2023-04-15T16:54:05.881Z,1006.06
2023-04-15T16:55:05.928Z,1006.02
2023-04-15T16:56:05.892Z,1006.09
2023-04-15T16:57:05.893Z,1006.10
2023-04-15T16:58:07.896Z,1006.11
2023-04-15T16:59:06.051Z,1006.08
2023-04-15T17:00:05.913Z,1006.16
2023-04-15T17:01:05.959Z,1006.13
2023-04-15T17:02:05.956Z,1006.16
2023-04-15T17:03:06.264Z,1006.19
2023-04-15T17:04:06.048Z,1006.21
2023-04-15T17:05:05.945Z,1006.20
2023-04-15T17:06:05.960Z,1006.25
2023-04-15T17:07:05.957Z,1006.25
2023-04-15T17:08:05.967Z,1006.23
2023-04-15T17:09:06.167Z,1006.29
2023-04-15T17:10:05.974Z,1006.30
2023-04-15T17:11:06.011Z,1006.32
2023-04-15T17:12:05.987Z,1006.34
2023-04-15T17:13:05.999Z,1006.36
2023-04-15T17:14:06.023Z,1006.37
2023-04-15T17:15:06.022Z,1006.42
2023-04-15T17:16:06.112Z,1006.37
2023-04-15T17:18:08.601Z,1006.45
2023-04-15T17:19:08.609Z,1006.42
2023-04-15T17:20:08.620Z,1006.40
2023-04-15T17:21:08.625Z,1006.48
2023-04-15T17:22:08.623Z,1006.47
2023-04-15T17:23:08.632Z,1006.49
2023-04-15T17:24:08.644Z,1006.48
2023-04-15T17:25:08.640Z,1006.54
2023-04-15T17:26:08.655Z,1006.56
2023-04-15T17:27:08.682Z,1006.54
2023-04-15T17:28:08.701Z,1006.56
2023-04-15T17:29:08.675Z,1006.57
2023-04-15T17:30:08.787Z,1006.55
2023-04-15T17:31:08.724Z,1006.58
2023-04-15T17:32:08.694Z,1006.58
2023-04-15T17:33:50.461Z,1006.58
2023-04-15T17:34:09.802Z,1006.61
2023-04-15T17:35:08.708Z,1006.66
2023-04-15T17:36:08.723Z,1006.66
2023-04-15T17:37:08.722Z,1006.66
2023-04-15T17:38:08.727Z,1006.66
2023-04-15T17:39:08.746Z,1006.69
2023-04-15T17:40:09.122Z,1006.69
2023-04-15T17:41:08.752Z,1006.72
2023-04-15T17:42:08.757Z,1006.72
2023-04-15T17:44:22.953Z,1006.77
2023-04-15T17:45:21.364Z,1006.75
2023-04-15T17:46:21.393Z,1006.76
2023-04-15T17:47:21.399Z,1006.78
2023-04-15T17:48:21.378Z,1006.77
2023-04-15T17:49:21.385Z,1006.77
2023-04-15T17:50:21.389Z,1006.79
2023-04-15T17:51:21.396Z,1006.85
2023-04-15T17:52:21.410Z,1006.82
2023-04-15T17:53:21.412Z,1006.87
2023-04-15T17:54:21.414Z,1006.92
2023-04-15T17:55:21.422Z,1006.89
2023-04-15T17:56:21.426Z,1006.96
2023-04-15T17:57:21.446Z,1006.97
2023-04-15T17:58:21.448Z,1006.97
2023-04-15T17:59:21.447Z,1006.96
2023-04-15T18:00:21.481Z,1006.99
2023-04-15T18:01:21.547Z,1007.04
2023-04-15T18:02:21.650Z,1007.03
2023-04-15T18:03:21.610Z,1007.06
2023-04-15T18:04:22.810Z,1007.07
2023-04-15T18:05:21.551Z,1007.08
2023-04-15T18:06:21.481Z,1007.08
2023-04-15T18:07:21.514Z,1007.09
2023-04-15T18:08:21.503Z,1007.10
2023-04-15T18:09:21.507Z,1007.14
2023-04-15T18:10:21.514Z,1007.14
2023-04-15T18:11:21.518Z,1007.13
2023-04-15T18:12:21.520Z,1007.19
2023-04-15T18:13:21.523Z,1007.19
2023-04-15T18:14:33.676Z,1007.17
2023-04-15T18:15:21.564Z,1007.22
2023-04-15T18:16:21.668Z,1007.22
2023-04-15T18:17:21.576Z,1007.23
2023-04-15T18:18:21.560Z,1007.25
2023-04-15T18:19:21.566Z,1007.23
2023-04-15T18:20:21.567Z,1007.23
2023-04-15T18:21:21.583Z,1007.30
2023-04-15T18:22:21.576Z,1007.31
2023-04-15T18:23:21.595Z,1007.29
2023-04-15T18:24:21.601Z,1007.35
2023-04-15T18:25:21.607Z,1007.37
2023-04-15T18:26:21.612Z,1007.39
2023-04-15T18:27:21.615Z,1007.40
2023-04-15T18:28:21.622Z,1007.39
2023-04-15T18:30:21.634Z,1007.46
2023-04-15T18:32:04.278Z,1007.47
2023-04-15T18:33:04.221Z,1007.49
2023-04-15T18:34:04.456Z,1007.48
2023-04-15T18:35:04.200Z,1007.51
2023-04-15T18:36:04.213Z,1007.50
2023-04-15T18:37:04.214Z,1007.52
2023-04-15T18:38:04.214Z,1007.53
2023-04-15T18:39:04.636Z,1007.53
2023-04-15T18:40:04.235Z,1007.54
2023-04-15T18:41:04.227Z,1007.56
2023-04-15T18:42:04.238Z,1007.56
2023-04-15T18:43:04.243Z,1007.60
2023-04-15T18:44:04.255Z,1007.61
2023-04-15T18:45:04.287Z,1007.60
2023-04-15T18:46:04.306Z,1007.64
2023-04-15T18:47:04.270Z,1007.66
2023-04-15T18:48:04.367Z,1007.66
2023-04-15T18:49:04.645Z,1007.69
2023-04-15T18:50:04.286Z,1007.70
2023-04-15T18:51:04.296Z,1007.69
2023-04-15T18:52:04.321Z,1007.72
2023-04-15T18:53:04.310Z,1007.72
2023-04-15T18:54:04.305Z,1007.73
2023-04-15T18:55:04.319Z,1007.77
2023-04-15T18:56:04.318Z,1007.78
2023-04-15T18:57:04.332Z,1007.83
2023-04-15T18:58:06.402Z,1007.79
2023-04-15T18:59:11.583Z,1007.80
2023-04-15T19:00:04.349Z,1007.77
2023-04-15T19:01:04.397Z,1007.78
2023-04-15T19:02:04.421Z,1007.84
2023-04-15T19:03:04.442Z,1007.86
2023-04-15T19:04:04.438Z,1007.83
2023-04-15T19:05:04.418Z,1007.84
2023-04-15T19:06:04.379Z,1007.92
2023-04-15T19:07:04.393Z,1007.87
2023-04-15T19:08:04.399Z,1007.90
2023-04-15T19:10:27.016Z,1007.95
2023-04-15T19:11:27.027Z,1007.93
2023-04-15T19:12:27.026Z,1007.93
2023-04-15T19:13:27.038Z,1007.95
2023-04-15T19:14:27.038Z,1007.97
2023-04-15T19:15:27.043Z,1007.96
2023-04-15T19:16:27.148Z,1008.01
2023-04-15T19:17:27.082Z,1007.94
2023-04-15T19:18:27.063Z,1008.02
2023-04-15T19:19:27.093Z,1008.02
2023-04-15T19:20:27.079Z,1008.03
2023-04-15T19:21:27.084Z,1008.05
2023-04-15T19:22:27.092Z,1008.05
2023-04-15T19:23:27.095Z,1008.07
2023-04-15T19:24:27.118Z,1008.11
2023-04-15T19:25:27.118Z,1008.11
2023-04-15T19:26:27.107Z,1008.16
2023-04-15T19:27:27.111Z,1008.14
2023-04-15T19:28:27.131Z,1008.11
2023-04-15T19:29:27.144Z,1008.14
2023-04-15T19:30:27.155Z,1008.14
2023-04-15T19:31:27.165Z,1008.17
2023-04-15T19:32:27.188Z,1008.15
2023-04-15T19:33:27.156Z,1008.14
2023-04-15T19:34:27.159Z,1008.19
2023-04-15T19:35:27.191Z,1008.20
2023-04-15T19:36:27.172Z,1008.23
2023-04-15T19:38:14.731Z,1008.19
2023-04-15T19:39:14.745Z,1008.22
2023-04-15T19:40:14.780Z,1008.22
2023-04-15T19:41:14.742Z,1008.23
2023-04-15T19:42:14.756Z,1008.28
2023-04-15T19:43:14.772Z,1008.26
2023-04-15T19:44:14.765Z,1008.26
2023-04-15T19:45:14.778Z,1008.27
2023-04-15T19:46:14.840Z,1008.31
2023-04-15T19:47:14.787Z,1008.28
2023-04-15T19:48:14.785Z,1008.29
2023-04-15T19:49:14.788Z,1008.29
2023-04-15T19:50:14.801Z,1008.30
2023-04-15T19:51:14.819Z,1008.29
2023-04-15T19:52:14.813Z,1008.28
2023-04-15T19:53:14.813Z,1008.31
2023-04-15T19:54:14.819Z,1008.32
2023-04-15T19:55:14.835Z,1008.33
2023-04-15T19:56:14.835Z,1008.33
2023-04-15T19:57:14.842Z,1008.32
2023-04-15T19:58:14.855Z,1008.30
2023-04-15T19:59:14.881Z,1008.30
2023-04-15T20:00:14.860Z,1008.30
2023-04-15T20:01:14.888Z,1008.27
2023-04-15T20:02:14.995Z,1008.27
2023-04-15T20:03:14.992Z,1008.25
2023-04-15T20:04:14.994Z,1008.26
2023-04-15T20:05:14.890Z,1008.32
2023-04-15T20:06:14.892Z,1008.33
2023-04-15T20:07:14.921Z,1008.31
2023-04-15T20:08:14.908Z,1008.31
2023-04-15T20:09:14.915Z,1008.35
2023-04-15T20:10:14.921Z,1008.32
2023-04-15T20:11:15.117Z,1008.34
2023-04-15T20:12:50.712Z,1008.36
2023-04-15T20:13:14.929Z,1008.38
2023-04-15T20:14:14.933Z,1008.34
2023-04-15T20:15:14.944Z,1008.40
2023-04-15T20:16:14.995Z,1008.41
2023-04-15T20:17:14.981Z,1008.37
2023-04-15T20:21:00.844Z,1008.40
2023-04-15T20:22:00.854Z,1008.39
2023-04-15T20:23:00.880Z,1008.44
2023-04-15T20:24:00.871Z,1008.43
2023-04-15T20:25:00.876Z,1008.41
2023-04-15T20:26:00.877Z,1008.43
2023-04-15T20:27:00.893Z,1008.45
2023-04-15T20:28:01.162Z,1008.44
2023-04-15T20:29:00.892Z,1008.48